createdAt,value
2022-10-18T00:02:11.554Z,0.11
2022-10-18T00:05:11.509Z,0.32
2022-10-18T00:08:11.474Z,0.46
2022-10-18T00:11:11.515Z,0.34
2022-10-18T00:14:11.480Z,0.37
2022-10-18T00:17:11.507Z,0.46
2022-10-18T00:20:11.513Z,0.44
2022-10-18T00:23:11.500Z,0.42
2022-10-18T00:26:11.509Z,0.67
2022-10-18T00:29:11.534Z,0.66
2022-10-18T00:32:11.470Z,0.51
2022-10-18T00:35:11.522Z,0.28
2022-10-18T00:38:11.518Z,0.21
2022-10-18T00:41:11.518Z,0.19
2022-10-18T00:44:11.520Z,0.3
2022-10-18T00:47:11.509Z,0.29
2022-10-18T00:50:11.500Z,0.26
2022-10-18T00:53:11.517Z,0.25
2022-10-18T00:56:11.509Z,0.2
2022-10-18T00:59:11.518Z,0.05
2022-10-18T01:02:11.618Z,0.02
2022-10-18T01:05:11.595Z,0.24
2022-10-18T01:08:11.522Z,0.41
2022-10-18T01:11:11.534Z,0.43
2022-10-18T01:14:11.569Z,0.59
2022-10-18T01:17:11.571Z,0.33
2022-10-18T01:20:11.574Z,0.35
2022-10-18T01:23:11.534Z,0.39
2022-10-18T01:26:11.565Z,0.22
2022-10-18T01:29:11.561Z,0.39
2022-10-18T01:32:11.564Z,0.41
2022-10-18T01:35:11.536Z,0.31
2022-10-18T01:38:11.584Z,0.31
2022-10-18T01:41:13.087Z,0.32
2022-10-18T01:44:11.545Z,0.16
2022-10-18T01:47:11.576Z,0.07
2022-10-18T01:50:11.579Z,0.1
2022-10-18T01:53:11.584Z,0.14
2022-10-18T01:56:11.580Z,0.07
2022-10-18T01:59:11.585Z,0.02
2022-10-18T02:02:11.591Z,0.03
2022-10-18T02:05:11.566Z,0.07
2022-10-18T02:08:22.694Z,0.12
2022-10-18T02:11:11.570Z,0.14
2022-10-18T02:14:11.595Z,0.07
2022-10-18T02:17:11.619Z,0.14
2022-10-18T02:20:11.570Z,0.11
2022-10-18T02:23:11.621Z,0.36
2022-10-18T02:26:11.592Z,0.25
2022-10-18T02:29:11.619Z,0.3
2022-10-18T02:32:11.599Z,0.32
2022-10-18T02:35:11.615Z,0.17
2022-10-18T02:38:11.643Z,0.21
2022-10-18T02:41:11.608Z,0.03
2022-10-18T02:44:11.639Z,0.15
2022-10-18T02:47:11.638Z,0.16
2022-10-18T02:50:11.619Z,0.13
2022-10-18T02:53:11.650Z,0.19
2022-10-18T02:56:11.620Z,0.44
2022-10-18T02:59:11.656Z,0.32
2022-10-18T03:02:11.611Z,0.35
2022-10-18T03:05:11.634Z,0.38
2022-10-18T03:08:11.629Z,0.56
2022-10-18T03:11:11.644Z,0.59
2022-10-18T03:14:11.642Z,0.67
2022-10-18T03:17:11.636Z,0.49
2022-10-18T03:20:11.657Z,0.75
2022-10-18T03:23:11.661Z,0.9
2022-10-18T03:26:11.650Z,0.64
2022-10-18T03:29:11.709Z,0.57
2022-10-18T03:32:11.670Z,0.78
2022-10-18T03:35:11.671Z,0.74
2022-10-18T03:38:11.682Z,0.75
2022-10-18T03:41:11.659Z,0.54
2022-10-18T03:44:11.709Z,0.58
2022-10-18T03:47:11.686Z,0.94
2022-10-18T03:50:11.682Z,0.74
2022-10-18T03:53:11.646Z,0.66
2022-10-18T03:56:11.672Z,0.67
2022-10-18T03:59:11.659Z,0.71
2022-10-18T04:02:11.695Z,0.73
2022-10-18T04:05:11.696Z,0.73
2022-10-18T04:08:11.711Z,0.74
2022-10-18T04:11:11.696Z,0.55
2022-10-18T04:14:11.692Z,0.39
2022-10-18T04:17:11.744Z,0.67
2022-10-18T04:20:11.720Z,0.83
2022-10-18T04:23:11.711Z,0.86
2022-10-18T04:26:11.697Z,0.83
2022-10-18T04:29:11.817Z,0.89
2022-10-18T04:32:11.727Z,0.77
2022-10-18T04:35:11.746Z,0.7
2022-10-18T04:38:11.740Z,0.54
2022-10-18T04:41:11.730Z,0.37
2022-10-18T04:44:11.705Z,0.49
2022-10-18T04:47:11.751Z,0.26
2022-10-18T04:50:11.702Z,0.28
2022-10-18T04:53:11.735Z,0.39
2022-10-18T04:56:11.754Z,0.47
2022-10-18T04:59:11.717Z,0.57
2022-10-18T05:02:11.737Z,0.55
2022-10-18T05:05:13.310Z,0.42
2022-10-18T05:08:11.762Z,0.47
2022-10-18T05:11:11.787Z,0.49
2022-10-18T05:14:11.755Z,0.47
2022-10-18T05:17:11.731Z,0.54
2022-10-18T05:20:11.802Z,0.46
2022-10-18T05:23:11.758Z,0.26
2022-10-18T05:26:11.773Z,0.29
2022-10-18T05:29:11.836Z,0.31
2022-10-18T05:32:11.786Z,0.37
2022-10-18T05:35:11.775Z,0.44
2022-10-18T05:38:11.822Z,0.42
2022-10-18T05:41:11.782Z,0.43
2022-10-18T05:44:11.792Z,0.61
2022-10-18T05:47:11.795Z,0.55
2022-10-18T05:50:11.765Z,0.52
2022-10-18T05:53:12.238Z,0.47
2022-10-18T05:56:11.893Z,0.25
2022-10-18T05:59:11.811Z,0.28
2022-10-18T06:02:11.877Z,0.17
2022-10-18T06:05:11.795Z,0.51
2022-10-18T06:08:11.841Z,0.43
2022-10-18T06:11:11.815Z,0.3
2022-10-18T06:14:11.801Z,0.45
2022-10-18T06:17:11.817Z,0.51
2022-10-18T06:20:11.800Z,0.41
2022-10-18T06:23:11.845Z,0.55
2022-10-18T06:26:11.817Z,0.46
2022-10-18T06:29:11.892Z,0.65
2022-10-18T06:32:11.851Z,0.7
2022-10-18T06:35:11.852Z,0.58
2022-10-18T06:38:11.832Z,0.41
2022-10-18T06:41:11.840Z,0.89
2022-10-18T06:44:11.889Z,0.66
2022-10-18T06:47:11.806Z,0.61
2022-10-18T06:50:11.891Z,0.48
2022-10-18T06:53:11.887Z,0.46
2022-10-18T06:56:11.864Z,0.31
2022-10-18T06:59:11.878Z,0.56
2022-10-18T07:02:11.836Z,0.85
2022-10-18T07:05:11.836Z,0.32
2022-10-18T07:08:11.866Z,0.26
2022-10-18T07:11:11.842Z,0.26
2022-10-18T07:14:15.407Z,0.39
2022-10-18T07:17:11.873Z,0.63
2022-10-18T07:20:11.903Z,0.71
2022-10-18T07:23:11.873Z,0.69
2022-10-18T07:26:11.879Z,0.88
2022-10-18T07:29:12.016Z,0.64
2022-10-18T07:32:14.386Z,0.94
2022-10-18T07:38:11.876Z,0.94
2022-10-18T07:41:11.920Z,0.71
2022-10-18T07:44:11.887Z,0.82
2022-10-18T07:47:11.896Z,0.62
2022-10-18T07:50:11.944Z,1.05
2022-10-18T07:53:11.898Z,0.99
2022-10-18T07:56:11.990Z,0.97
2022-10-18T07:59:11.940Z,0.97
2022-10-18T08:02:11.921Z,0.98
2022-10-18T08:05:11.936Z,1.15
2022-10-18T08:08:11.933Z,1.41
2022-10-18T08:11:11.937Z,0.77
2022-10-18T08:14:11.975Z,1.04
2022-10-18T08:17:11.944Z,1.1
2022-10-18T08:20:19.140Z,1.23
2022-10-18T08:23:11.921Z,0.89
2022-10-18T08:26:11.926Z,1.12
2022-10-18T08:29:22.354Z,0.78
2022-10-18T08:32:11.966Z,1.15
2022-10-18T08:35:11.953Z,1.11
2022-10-18T08:38:15.140Z,0.84
2022-10-18T08:41:11.953Z,0.81
2022-10-18T08:44:11.967Z,1.26
2022-10-18T08:47:12.031Z,0.89
2022-10-18T08:50:11.955Z,1
2022-10-18T08:53:11.961Z,0.98
2022-10-18T08:56:11.987Z,1.46
2022-10-18T08:59:11.965Z,1.26
2022-10-18T09:02:11.998Z,1.33
2022-10-18T09:05:11.963Z,1.15
2022-10-18T09:08:12.045Z,1.06
2022-10-18T09:11:11.962Z,1.16
2022-10-18T09:14:11.957Z,0.93
2022-10-18T09:17:15.032Z,0.93
2022-10-18T09:20:11.984Z,0.9
2022-10-18T09:23:11.993Z,1.13
2022-10-18T09:26:12.035Z,1.15
2022-10-18T09:29:12.069Z,1.04
2022-10-18T09:32:12.021Z,1.25
2022-10-18T09:35:12.016Z,1.2
2022-10-18T09:38:12.070Z,0.96
2022-10-18T09:41:12.473Z,1.17
2022-10-18T09:44:12.015Z,0.95
2022-10-18T09:47:15.933Z,1.17
2022-10-18T09:50:12.017Z,1.36
2022-10-18T09:53:12.001Z,1.28
2022-10-18T09:56:12.071Z,1.22
2022-10-18T09:59:12.038Z,1.11
2022-10-18T10:02:12.073Z,1.01
2022-10-18T10:05:12.036Z,0.88
2022-10-18T10:08:12.003Z,0.81
2022-10-18T10:11:12.015Z,1.08
2022-10-18T10:14:12.084Z,0.96
2022-10-18T10:17:12.032Z,1.49
2022-10-18T10:20:12.055Z,1.43
2022-10-18T10:23:12.069Z,1.47
2022-10-18T10:26:12.062Z,1.22
2022-10-18T10:29:17.279Z,1.07
2022-10-18T10:32:12.042Z,1.02
2022-10-18T10:35:17.466Z,1.34
2022-10-18T10:38:12.059Z,1.53
2022-10-18T10:41:12.115Z,1.38
2022-10-18T10:44:12.060Z,1.27
2022-10-18T10:47:12.061Z,1.1
2022-10-18T10:50:12.068Z,1.02
2022-10-18T10:53:12.058Z,1.12
2022-10-18T10:56:15.234Z,0.88
2022-10-18T10:59:12.063Z,1.19
2022-10-18T11:02:12.102Z,0.99
2022-10-18T11:05:12.101Z,1.14
2022-10-18T11:08:12.078Z,0.94
2022-10-18T11:11:12.093Z,0.83
2022-10-18T11:14:27.486Z,0.95
2022-10-18T11:17:12.101Z,0.78
2022-10-18T11:20:12.110Z,0.72
2022-10-18T11:23:12.091Z,0.58
2022-10-18T11:26:12.106Z,0.82
2022-10-18T11:29:12.086Z,1.59
2022-10-18T11:32:12.122Z,1.5
2022-10-18T11:35:12.152Z,1.24
2022-10-18T11:38:12.163Z,1.08
2022-10-18T11:41:12.098Z,0.91
2022-10-18T11:44:12.072Z,1.11
2022-10-18T11:47:12.109Z,1.05
2022-10-18T11:50:12.169Z,1.22
2022-10-18T11:53:12.166Z,1.17
2022-10-18T11:56:12.122Z,1.16
2022-10-18T11:59:12.134Z,0.9
2022-10-18T12:02:12.195Z,0.81
2022-10-18T12:05:22.935Z,0.73
2022-10-18T12:08:12.156Z,0.75
2022-10-18T12:11:12.124Z,0.85
2022-10-18T12:14:12.166Z,0.89
2022-10-18T12:17:40.093Z,0.89
2022-10-18T12:20:12.122Z,0.92
2022-10-18T12:23:12.170Z,1.27
2022-10-18T12:26:12.143Z,1.06
2022-10-18T12:29:12.176Z,0.82
2022-10-18T12:32:12.306Z,0.85
2022-10-18T12:35:12.212Z,1.03
2022-10-18T12:38:12.228Z,0.88
2022-10-18T12:41:12.277Z,0.81
2022-10-18T12:44:12.247Z,0.98
2022-10-18T12:47:12.193Z,0.71
2022-10-18T12:50:12.317Z,0.75
2022-10-18T12:53:12.233Z,1.27
2022-10-18T12:56:12.459Z,1.28
2022-10-18T12:59:12.243Z,1.11
2022-10-18T13:02:12.191Z,1.35
2022-10-18T13:05:16.522Z,1.34
2022-10-18T13:08:12.232Z,0.84
2022-10-18T13:11:12.255Z,0.95
2022-10-18T13:14:12.458Z,1.55
2022-10-18T13:17:13.335Z,1.58
2022-10-18T13:20:25.386Z,1.05
2022-10-18T13:23:12.269Z,0.75
2022-10-18T13:26:12.268Z,1.35
2022-10-18T13:29:12.257Z,1.35
2022-10-18T13:32:12.260Z,1.55
2022-10-18T13:35:12.191Z,1.23
2022-10-18T13:38:12.260Z,1.24
2022-10-18T13:41:12.272Z,1.12
2022-10-18T13:44:12.217Z,1.24
2022-10-18T13:47:12.246Z,1.25
2022-10-18T13:50:12.249Z,1.25
2022-10-18T13:53:12.243Z,1.37
2022-10-18T13:56:12.240Z,1.6
2022-10-18T13:59:15.386Z,1.18
2022-10-18T14:02:12.281Z,1.02
2022-10-18T14:05:24.448Z,1.15
2022-10-18T14:08:12.212Z,1.25
2022-10-18T14:11:12.222Z,1.05
2022-10-18T14:14:12.226Z,1.48
2022-10-18T14:17:16.940Z,1.45
2022-10-18T14:20:12.327Z,0.88
2022-10-18T14:23:12.312Z,1.34
2022-10-18T14:26:12.254Z,0.98
2022-10-18T14:29:12.264Z,1.49
2022-10-18T14:32:12.283Z,1.23
2022-10-18T14:35:31.400Z,1.19
2022-10-18T14:38:12.302Z,0.64
2022-10-18T14:41:12.286Z,0.84
2022-10-18T14:44:12.257Z,0.77
2022-10-18T14:47:12.274Z,0.93
2022-10-18T14:50:12.294Z,0.86
2022-10-18T14:53:12.369Z,0.59
2022-10-18T14:56:12.277Z,1.02
2022-10-18T14:59:12.297Z,0.84
2022-10-18T15:02:12.301Z,0.69
2022-10-18T15:05:12.348Z,0.8
2022-10-18T15:08:12.288Z,0.77
2022-10-18T15:11:13.513Z,0.78
2022-10-18T15:14:12.331Z,0.94
2022-10-18T15:17:12.317Z,0.96
2022-10-18T15:20:12.289Z,0.55
2022-10-18T15:23:12.338Z,0.72
2022-10-18T15:26:12.333Z,0.63
2022-10-18T15:29:12.347Z,0.59
2022-10-18T15:32:12.302Z,0.69
2022-10-18T15:35:12.327Z,0.36
2022-10-18T15:38:12.323Z,0.41
2022-10-18T15:41:12.313Z,0.52
2022-10-18T15:44:13.359Z,0.47
2022-10-18T15:47:12.344Z,0.35
2022-10-18T15:50:12.348Z,0.42
2022-10-18T15:53:12.333Z,0.66
2022-10-18T15:56:12.329Z,0.5
2022-10-18T15:59:12.357Z,0.56
2022-10-18T16:02:12.359Z,0.67
2022-10-18T16:05:12.369Z,0.49
2022-10-18T16:08:12.376Z,0.57
2022-10-18T16:11:12.349Z,0.39
2022-10-18T16:14:12.724Z,0.42
2022-10-18T16:17:12.344Z,0.42
2022-10-18T16:20:12.398Z,0.23
2022-10-18T16:23:12.354Z,0.45
2022-10-18T16:26:12.363Z,0.41
2022-10-18T16:29:12.345Z,0.5
2022-10-18T16:32:12.386Z,0.37
2022-10-18T16:35:12.366Z,0.31
2022-10-18T16:38:12.374Z,0.37
2022-10-18T16:41:12.350Z,0.42
2022-10-18T16:44:12.384Z,0.31
2022-10-18T16:47:12.397Z,0.33
2022-10-18T16:50:12.367Z,0.36
2022-10-18T16:53:12.439Z,0.35
2022-10-18T16:56:12.357Z,0.48
2022-10-18T16:59:12.528Z,0.35
2022-10-18T17:02:12.394Z,0.37
2022-10-18T17:05:12.364Z,0.35
2022-10-18T17:08:14.266Z,0.23
2022-10-18T17:11:12.394Z,0.28
2022-10-18T17:14:12.454Z,0.32
2022-10-18T17:17:12.417Z,0.39
2022-10-18T17:20:12.393Z,0.32
2022-10-18T17:23:12.448Z,0.42
2022-10-18T17:26:27.590Z,0.43
2022-10-18T17:29:12.460Z,0.46
2022-10-18T17:32:12.523Z,0.25
2022-10-18T17:35:12.442Z,0.39
2022-10-18T17:38:12.460Z,0.39
2022-10-18T17:41:12.458Z,0.55
2022-10-18T17:44:12.460Z,0.59
2022-10-18T17:47:12.474Z,0.46
2022-10-18T17:50:12.442Z,0.47
2022-10-18T17:53:12.562Z,0.31
2022-10-18T17:56:12.439Z,0.28
2022-10-18T17:59:12.477Z,0.17
2022-10-18T18:02:12.485Z,0.12
2022-10-18T18:05:12.418Z,0.12
2022-10-18T18:08:12.458Z,0.37
2022-10-18T18:11:12.415Z,0.38
2022-10-18T18:14:12.504Z,0.31
2022-10-18T18:17:12.513Z,0.35
2022-10-18T18:20:12.457Z,0.49
2022-10-18T18:23:12.464Z,0.42
2022-10-18T18:26:12.541Z,0.49
2022-10-18T18:29:12.459Z,0.34
2022-10-18T18:32:12.469Z,0.21
2022-10-18T18:35:12.474Z,0.31
2022-10-18T18:38:12.492Z,0.2
2022-10-18T18:41:12.504Z,0.22
2022-10-18T18:44:12.488Z,0.32
2022-10-18T18:47:13.379Z,0.14
2022-10-18T18:50:12.525Z,0.18
2022-10-18T18:53:12.478Z,0.16
2022-10-18T18:56:12.581Z,0.16
2022-10-18T18:59:12.507Z,0.1
2022-10-18T19:02:12.533Z,0.22
2022-10-18T19:05:12.564Z,0.09
2022-10-18T19:08:12.478Z,0.16
2022-10-18T19:11:12.507Z,0.07
2022-10-18T19:14:12.526Z,0.05
2022-10-18T19:17:12.543Z,0.04
2022-10-18T19:20:12.513Z,0.03
2022-10-18T19:23:12.490Z,0.01
2022-10-18T19:26:12.494Z,0.07
2022-10-18T19:29:12.545Z,0.06
2022-10-18T19:32:12.537Z,0
2022-10-18T19:35:12.549Z,0.01
2022-10-18T19:38:12.513Z,0.02
2022-10-18T19:41:12.521Z,0.01
2022-10-18T19:44:12.550Z,0
2022-10-18T19:47:12.538Z,0
2022-10-18T19:50:12.598Z,0
2022-10-18T19:53:12.515Z,0
2022-10-18T19:56:12.513Z,0
2022-10-18T19:59:12.535Z,0
2022-10-18T20:02:12.565Z,0
2022-10-18T20:05:12.593Z,0
2022-10-18T20:08:12.600Z,0
2022-10-18T20:11:12.558Z,0
2022-10-18T20:14:12.596Z,0
2022-10-18T20:17:12.574Z,0
2022-10-18T20:20:12.580Z,0
2022-10-18T20:23:12.563Z,0
2022-10-18T20:26:15.508Z,0
2022-10-18T20:29:12.634Z,0
2022-10-18T20:32:12.604Z,0
2022-10-18T20:35:12.600Z,0.15
2022-10-18T20:38:12.635Z,0.03
2022-10-18T20:41:12.596Z,0.01
2022-10-18T20:44:12.618Z,0.03
2022-10-18T20:47:12.612Z,0.01
2022-10-18T20:50:12.719Z,0
2022-10-18T20:53:12.670Z,0
2022-10-18T20:56:12.620Z,0
2022-10-18T20:59:12.646Z,0
2022-10-18T21:02:12.718Z,0
2022-10-18T21:05:12.678Z,0.03
2022-10-18T21:08:12.644Z,0.01
2022-10-18T21:11:12.684Z,0.04
2022-10-18T21:14:12.654Z,0
2022-10-18T21:17:12.616Z,0.05
2022-10-18T21:20:12.688Z,0.16
2022-10-18T21:23:12.668Z,0.1
2022-10-18T21:26:12.653Z,0.08
2022-10-18T21:29:12.687Z,0.01
2022-10-18T21:32:12.659Z,0.02
2022-10-18T21:35:12.666Z,0.09
2022-10-18T21:38:12.704Z,0
2022-10-18T21:41:12.663Z,0
2022-10-18T21:44:12.693Z,0
2022-10-18T21:47:12.699Z,0.01
2022-10-18T21:50:12.688Z,0
2022-10-18T21:53:12.695Z,0
2022-10-18T21:56:12.690Z,0
2022-10-18T21:59:12.713Z,0
2022-10-18T22:02:12.623Z,0.12
2022-10-18T22:05:12.769Z,0.09
2022-10-18T22:08:12.805Z,0
2022-10-18T22:11:12.745Z,0
2022-10-18T22:14:12.732Z,0
2022-10-18T22:17:12.743Z,0
2022-10-18T22:20:12.709Z,0
2022-10-18T22:23:12.700Z,0.03
2022-10-18T22:26:12.731Z,0.1
2022-10-18T22:29:12.776Z,0.17
2022-10-18T22:32:12.778Z,0.31
2022-10-18T22:35:12.804Z,0.34
2022-10-18T22:38:12.768Z,0.32
2022-10-18T22:41:12.748Z,0.12
2022-10-18T22:44:12.731Z,0.13
2022-10-18T22:47:12.808Z,0.06
2022-10-18T22:50:12.754Z,0.1
2022-10-18T22:53:12.788Z,0.03
2022-10-18T22:56:12.744Z,0.11
2022-10-18T22:59:12.765Z,0.16
2022-10-18T23:02:12.789Z,0.19
2022-10-18T23:05:12.765Z,0.22
2022-10-18T23:08:12.787Z,0.1
2022-10-18T23:11:12.814Z,0
2022-10-18T23:14:12.863Z,0
2022-10-18T23:17:12.789Z,0.1
2022-10-18T23:20:12.829Z,0.03
2022-10-18T23:23:12.819Z,0
2022-10-18T23:26:12.790Z,0.08
2022-10-18T23:29:12.865Z,0.18
2022-10-18T23:32:12.818Z,0.13
2022-10-18T23:35:12.789Z,0.11
2022-10-18T23:38:12.790Z,0.1
2022-10-18T23:41:12.841Z,0.21
2022-10-18T23:44:12.807Z,0.22
2022-10-18T23:47:12.872Z,0.21
2022-10-18T23:50:12.822Z,0.19
2022-10-18T23:53:12.884Z,0.22
2022-10-18T23:56:12.820Z,0.15
2022-10-18T23:59:12.851Z,0.12
